createdAt,value
2022-09-12T00:05:01.500Z,14.4
2022-09-12T00:15:01.501Z,14.3
2022-09-12T00:25:01.471Z,14.1
2022-09-12T00:35:01.421Z,14
2022-09-12T00:45:01.494Z,13.8
2022-09-12T00:55:01.486Z,13.8
2022-09-12T01:05:01.356Z,13.8
2022-09-12T01:15:01.442Z,13.7
2022-09-12T01:25:01.420Z,13.7
2022-09-12T01:35:01.407Z,13.5
2022-09-12T01:45:01.397Z,13.3
2022-09-12T02:05:01.244Z,13.2
2022-09-12T02:15:01.333Z,13.2
2022-09-12T02:25:01.333Z,13.1
2022-09-12T02:35:01.191Z,13
2022-09-12T02:45:01.280Z,12.9
2022-09-12T02:55:01.163Z,12.9
2022-09-12T03:05:01.133Z,12.7
2022-09-12T03:15:01.156Z,12.6
2022-09-12T03:25:01.099Z,12.4
2022-09-12T03:35:01.088Z,12.3
2022-09-12T03:45:01.164Z,12.3
2022-09-12T03:55:01.049Z,12.3
2022-09-12T04:05:01.032Z,12.3
2022-09-12T04:15:01.143Z,12.1
2022-09-12T04:25:01.001Z,12
2022-09-12T04:35:00.974Z,12.1
2022-09-12T04:45:01.065Z,12.1
2022-09-12T04:55:00.940Z,12.1
2022-09-12T05:05:00.929Z,11.9
2022-09-12T05:15:00.936Z,11.8
2022-09-12T05:25:00.894Z,11.8
2022-09-12T05:35:00.867Z,11.9
2022-09-12T05:45:00.956Z,12
2022-09-12T05:55:00.843Z,12
2022-09-12T06:05:00.817Z,12.2
2022-09-12T06:15:00.907Z,12.5
2022-09-12T06:25:00.784Z,12.7
2022-09-12T06:35:00.775Z,12.8
2022-09-12T06:45:00.853Z,13.1
2022-09-12T06:55:00.728Z,13.3
2022-09-12T07:05:00.715Z,13.7
2022-09-12T07:15:00.722Z,14.1
2022-09-12T07:25:00.675Z,14.5
2022-09-12T07:35:00.647Z,14.9
2022-09-12T07:45:00.671Z,15.3
2022-09-12T07:55:00.721Z,15.9
2022-09-12T08:05:00.589Z,16.2
2022-09-12T08:15:00.607Z,16.6
2022-09-12T08:25:00.592Z,17.1
2022-09-12T08:35:00.549Z,17.5
2022-09-12T08:45:00.515Z,17.8
2022-09-12T08:55:00.596Z,18.2
2022-09-12T09:05:00.476Z,18.6
2022-09-12T09:15:00.556Z,18.9
2022-09-12T09:25:00.535Z,19.3
2022-09-12T09:35:00.417Z,21.1
2022-09-12T09:45:00.389Z,23.5
2022-09-12T09:55:00.474Z,26.1
2022-09-12T10:05:00.340Z,27.7
2022-09-12T10:15:00.437Z,29.3
2022-09-12T10:25:00.423Z,30.4
2022-09-12T10:35:00.381Z,31.1
2022-09-12T10:45:00.257Z,32.1
2022-09-12T10:55:00.335Z,32.8
2022-09-12T11:05:00.218Z,33.9
2022-09-12T11:15:00.237Z,34.5
2022-09-12T11:25:00.296Z,34.8
2022-09-12T11:35:00.252Z,35
2022-09-12T11:45:00.138Z,34
2022-09-12T11:55:00.140Z,34.6
2022-09-12T12:05:00.121Z,34.6
2022-09-12T12:15:00.097Z,34.7
2022-09-12T12:25:00.171Z,35.1
2022-09-12T12:35:00.038Z,35.8
2022-09-12T12:45:00.133Z,37
2022-09-12T12:55:00.118Z,37.5
2022-09-12T13:04:59.961Z,38.1
2022-09-12T13:14:59.952Z,39.1
2022-09-12T13:25:00.016Z,39.7
2022-09-12T13:34:59.908Z,39.9
2022-09-12T13:44:59.993Z,39.5
2022-09-12T13:54:59.981Z,39.6
2022-09-12T14:04:59.846Z,39.5
2022-09-12T14:14:59.833Z,39
2022-09-12T14:24:59.929Z,38.6
2022-09-12T14:34:59.798Z,38.7
2022-09-12T14:44:59.816Z,38.5
2022-09-12T14:54:59.865Z,38.3
2022-09-12T15:04:59.732Z,38.5
2022-09-12T15:14:59.719Z,38.2
2022-09-12T15:24:59.805Z,37.8
2022-09-12T15:34:59.673Z,37.4
2022-09-12T15:45:02.347Z,37.2
2022-09-12T15:54:59.735Z,37.1
2022-09-12T16:04:59.619Z,36.7
2022-09-12T16:14:59.593Z,36.2
2022-09-12T16:24:59.676Z,35.7
2022-09-12T16:34:59.567Z,35.2
2022-09-12T16:44:59.635Z,34.6
2022-09-12T16:54:59.617Z,34.1
2022-09-12T17:04:59.491Z,34
2022-09-12T17:14:59.467Z,33.5
2022-09-12T17:24:59.475Z,32.2
2022-09-12T17:34:59.435Z,30.8
2022-09-12T17:44:59.437Z,29.5
2022-09-12T17:54:59.380Z,28.5
2022-09-12T18:04:59.359Z,27.4
2022-09-12T18:14:59.333Z,26.5
2022-09-12T18:24:59.312Z,25.8
2022-09-12T18:34:59.287Z,25.1
2022-09-12T18:44:59.311Z,24.5
2022-09-12T18:54:59.243Z,24.1
2022-09-12T19:04:59.237Z,23.6
2022-09-12T19:14:59.199Z,23.2
2022-09-12T19:24:59.181Z,22.8
2022-09-12T19:34:59.159Z,22.4
2022-09-12T19:44:59.177Z,22.1
2022-09-12T19:54:59.124Z,21.8
2022-09-12T20:04:59.103Z,21.4
2022-09-12T20:14:59.109Z,21.2
2022-09-12T20:24:59.054Z,20.8
2022-09-12T20:34:59.151Z,20.6
2022-09-12T20:44:59.041Z,20.3
2022-09-12T20:54:58.988Z,20.1
2022-09-12T21:04:58.970Z,19.8
2022-09-12T21:14:58.991Z,19.6
2022-09-12T21:24:58.930Z,19.4
2022-09-12T21:34:58.903Z,19.1
2022-09-12T21:44:58.927Z,19
2022-09-12T21:54:58.894Z,18.8
2022-09-12T22:04:58.925Z,18.5
2022-09-12T22:14:58.826Z,18.4
2022-09-12T22:24:58.833Z,18.3
2022-09-12T22:34:58.790Z,18.2
2022-09-12T22:44:58.766Z,18
2022-09-12T22:54:58.781Z,17.8
2022-09-12T23:04:58.725Z,17.5
2022-09-12T23:14:58.711Z,17.6
2022-09-12T23:24:58.709Z,17.4
2022-09-12T23:34:58.654Z,17.4
2022-09-12T23:44:58.653Z,17.4
2022-09-12T23:54:58.661Z,17.3
